Time,TemperatureF,DewpointF,PressureIn,WindDirection,WindDirectionDegrees,WindSpeedMPH,WindSpeedGustMPH,Humidity,HourlyPrecipIn,Conditions,Clouds,dailyrainin,SoftwareType,DateUTC
2013-10-04 00:10:00,35.6,34.3,29.41,NNE,22,4.7,-999.0,95,-99.99,,,0.00,Acu-Link.com,2013-10-04 08:10:00,
2013-10-04 00:25:00,36.7,34.9,29.40,NNE,22,5.8,-999.0,93,-99.99,,,0.00,Acu-Link.com,2013-10-04 08:25:00,
2013-10-04 00:41:00,36.5,34.7,29.41,NNW,337,2.7,-999.0,93,-99.99,,,0.00,Acu-Link.com,2013-10-04 08:41:00,
2013-10-04 00:56:00,36.5,34.4,29.40,NNE,22,3.7,-999.0,92,-99.99,,,0.00,Acu-Link.com,2013-10-04 08:56:00,
2013-10-04 01:11:00,36.0,33.6,29.40,NNW,337,3.7,-999.0,91,-99.99,,,0.00,Acu-Link.com,2013-10-04 09:11:00,
2013-10-04 01:26:00,35.4,33.3,29.40,NE,45,3.7,-999.0,92,-99.99,,,0.00,Acu-Link.com,2013-10-04 09:26:00,
2013-10-04 01:41:00,33.8,32.0,29.40,South,180,2.7,-999.0,93,-99.99,,,0.00,Acu-Link.com,2013-10-04 09:41:00,
2013-10-04 01:57:00,33.6,32.1,29.40,WNW,292,2.7,-999.0,94,-99.99,,,0.00,Acu-Link.com,2013-10-04 09:57:00,
2013-10-04 02:12:00,33.3,31.8,29.41,NW,315,0.0,-999.0,94,-99.99,,,0.00,Acu-Link.com,2013-10-04 10:12:00,
2013-10-04 02:27:00,33.1,31.8,29.41,NNE,22,3.2,-999.0,95,-99.99,,,0.00,Acu-Link.com,2013-10-04 10:27:00,
2013-10-04 02:43:00,32.5,31.2,29.41,North,0,0.0,-999.0,95,-99.99,,,0.00,Acu-Link.com,2013-10-04 10:43:00,
2013-10-04 03:06:00,32.5,31.2,29.41,NW,315,0.0,-999.0,95,-99.99,,,0.00,Acu-Link.com,2013-10-04 11:06:00,
2013-10-04 03:22:00,32.2,30.9,29.42,NNE,22,0.0,-999.0,95,-99.99,,,0.00,Acu-Link.com,2013-10-04 11:22:00,
2013-10-04 03:37:00,31.8,30.8,29.42,SSW,202,0.0,-999.0,96,-99.99,,,0.00,Acu-Link.com,2013-10-04 11:37:00,
2013-10-04 03:52:00,31.5,31.0,29.42,SSW,202,2.7,-999.0,98,-99.99,,,0.00,Acu-Link.com,2013-10-04 11:52:00,
2013-10-04 04:08:00,31.3,30.8,29.42,SW,225,2.2,-999.0,98,-99.99,,,0.00,Acu-Link.com,2013-10-04 12:08:00,
2013-10-04 04:23:00,31.1,30.6,29.43,SW,225,2.2,-999.0,98,-99.99,,,0.00,Acu-Link.com,2013-10-04 12:23:00,
2013-10-04 04:38:00,31.3,30.8,29.43,NW,315,3.2,-999.0,98,-99.99,,,0.00,Acu-Link.com,2013-10-04 12:38:00,
2013-10-04 04:53:00,31.8,31.0,29.43,NNW,337,1.7,-999.0,97,-99.99,,,0.00,Acu-Link.com,2013-10-04 12:53:00,
2013-10-04 05:08:00,31.5,31.0,29.42,SE,135,0.0,-999.0,98,-99.99,,,0.00,Acu-Link.com,2013-10-04 13:08:00,
2013-10-04 05:24:00,30.7,30.2,29.43,SE,135,0.0,-999.0,98,-99.99,,,0.00,Acu-Link.com,2013-10-04 13:24:00,
2013-10-04 05:40:00,30.4,29.9,29.44,ESE,112,2.2,-999.0,98,-99.99,,,0.00,Acu-Link.com,2013-10-04 13:40:00,
2013-10-04 05:56:00,30.6,30.1,29.44,SSW,202,2.7,-999.0,98,-99.99,,,0.00,Acu-Link.com,2013-10-04 13:56:00,
2013-10-04 06:11:00,29.8,29.3,29.44,SSW,202,0.0,-999.0,98,-99.99,,,0.00,Acu-Link.com,2013-10-04 14:11:00,
2013-10-04 06:26:00,30.0,29.5,29.44,SSE,157,1.7,-999.0,98,-99.99,,,0.00,Acu-Link.com,2013-10-04 14:26:00,
2013-10-04 06:42:00,29.3,28.8,29.45,SE,135,2.7,-999.0,98,-99.99,,,0.00,Acu-Link.com,2013-10-04 14:42:00,
2013-10-04 06:57:00,29.3,28.8,29.45,SSE,157,2.2,-999.0,98,-99.99,,,0.00,Acu-Link.com,2013-10-04 14:57:00,
2013-10-04 07:13:00,28.2,27.7,29.45,ESE,112,0.0,-999.0,98,-99.99,,,0.00,Acu-Link.com,2013-10-04 15:13:00,
2013-10-04 07:28:00,28.9,28.4,29.47,South,180,0.0,-999.0,98,-99.99,,,0.00,Acu-Link.com,2013-10-04 15:28:00,
2013-10-04 07:43:00,28.6,28.1,29.47,ESE,112,2.2,-999.0,98,-99.99,,,0.00,Acu-Link.com,2013-10-04 15:43:00,
2013-10-04 07:59:00,28.6,28.1,29.47,South,180,3.7,-999.0,98,-99.99,,,0.00,Acu-Link.com,2013-10-04 15:59:00,
2013-10-04 08:14:00,28.8,28.3,29.48,South,180,3.7,-999.0,98,-99.99,,,0.00,Acu-Link.com,2013-10-04 16:14:00,
2013-10-04 08:29:00,29.1,28.6,29.49,SSE,157,1.7,-999.0,98,-99.99,,,0.00,Acu-Link.com,2013-10-04 16:29:00,
2013-10-04 08:47:00,29.5,29.0,29.49,SSW,202,2.7,-999.0,98,-99.99,,,0.00,Acu-Link.com,2013-10-04 16:47:00,
2013-10-04 09:02:00,30.0,29.5,29.50,SSW,202,1.7,-999.0,98,-99.99,,,0.00,Acu-Link.com,2013-10-04 17:02:00,
2013-10-04 09:17:00,30.4,29.9,29.50,SE,135,0.0,-999.0,98,-99.99,,,0.00,Acu-Link.com,2013-10-04 17:17:00,
2013-10-04 09:33:00,30.6,30.1,29.50,SSE,157,2.2,-999.0,98,-99.99,,,0.00,Acu-Link.com,2013-10-04 17:33:00,
2013-10-04 10:03:00,30.9,30.4,29.51,SSW,202,3.2,-999.0,98,-99.99,,,0.00,Acu-Link.com,2013-10-04 18:03:00,
2013-10-04 10:18:00,31.1,30.6,29.52,South,180,3.2,-999.0,98,-99.99,,,0.00,Acu-Link.com,2013-10-04 18:18:00,
2013-10-04 10:34:00,31.3,30.8,29.52,South,180,4.2,-999.0,98,-99.99,,,0.00,Acu-Link.com,2013-10-04 18:34:00,
2013-10-04 10:49:00,31.6,31.1,29.52,SSW,202,2.7,-999.0,98,-99.99,,,0.00,Acu-Link.com,2013-10-04 18:49:00,
2013-10-04 11:04:00,31.6,31.1,29.53,SSW,202,3.7,-999.0,98,-99.99,,,0.00,Acu-Link.com,2013-10-04 19:04:00,
2013-10-04 11:19:00,32.0,31.5,29.53,SSW,202,2.2,-999.0,98,-99.99,,,0.00,Acu-Link.com,2013-10-04 19:19:00,
2013-10-04 11:34:00,32.5,31.7,29.54,South,180,3.7,-999.0,97,-99.99,,,0.00,Acu-Link.com,2013-10-04 19:34:00,
2013-10-04 11:50:00,33.6,32.6,29.54,SSW,202,3.2,-999.0,96,-99.99,,,0.00,Acu-Link.com,2013-10-04 19:50:00,
2013-10-04 12:05:00,33.8,32.5,29.54,SSW,202,3.7,-999.0,95,-99.99,,,0.00,Acu-Link.com,2013-10-04 20:05:00,
2013-10-04 12:21:00,33.8,32.5,29.55,SE,135,5.3,-999.0,95,-99.99,,,0.00,Acu-Link.com,2013-10-04 20:21:00,
2013-10-04 12:36:00,33.8,32.5,29.55,SSE,157,4.2,-999.0,95,-99.99,,,0.00,Acu-Link.com,2013-10-04 20:36:00,
2013-10-04 12:51:00,34.3,33.0,29.56,South,180,4.2,-999.0,95,-99.99,,,0.00,Acu-Link.com,2013-10-04 20:51:00,
2013-10-04 13:06:00,34.7,33.2,29.56,South,180,2.7,-999.0,94,-99.99,,,0.00,Acu-Link.com,2013-10-04 21:06:00,
2013-10-04 13:22:00,35.2,33.6,29.56,South,180,4.7,-999.0,94,-99.99,,,0.00,Acu-Link.com,2013-10-04 21:22:00,
2013-10-04 13:37:00,35.4,33.6,29.57,SSW,202,3.2,-999.0,93,-99.99,,,0.00,Acu-Link.com,2013-10-04 21:37:00,
2013-10-04 13:52:00,36.0,34.2,29.57,SSW,202,3.7,-999.0,93,-99.99,,,0.00,Acu-Link.com,2013-10-04 21:52:00,
2013-10-04 14:07:00,36.5,34.4,29.57,South,180,3.2,-999.0,92,-99.99,,,0.00,Acu-Link.com,2013-10-04 22:07:00,
2013-10-04 14:22:00,36.5,34.4,29.58,South,180,3.2,-999.0,92,-99.99,,,0.00,Acu-Link.com,2013-10-04 22:22:00,
2013-10-04 14:38:00,36.9,34.5,29.58,SSW,202,3.2,-999.0,91,-99.99,,,0.00,Acu-Link.com,2013-10-04 22:38:00,
2013-10-04 14:53:00,37.2,34.3,29.58,WSW,247,5.3,-999.0,89,-99.99,,,0.00,Acu-Link.com,2013-10-04 22:53:00,
2013-10-04 15:08:00,37.2,34.3,29.59,WSW,247,3.7,-999.0,89,-99.99,,,0.00,Acu-Link.com,2013-10-04 23:08:00,
2013-10-04 15:24:00,36.9,34.0,29.60,WSW,247,4.7,-999.0,89,-99.99,,,0.00,Acu-Link.com,2013-10-04 23:24:00,
2013-10-04 15:39:00,36.9,34.0,29.59,WSW,247,4.2,-999.0,89,-99.99,,,0.00,Acu-Link.com,2013-10-04 23:39:00,
2013-10-04 15:54:00,36.9,34.0,29.59,SW,225,4.7,-999.0,89,-99.99,,,0.00,Acu-Link.com,2013-10-04 23:54:00,
2013-10-04 16:09:00,37.0,34.1,29.60,SSW,202,2.7,-999.0,89,-99.99,,,0.00,Acu-Link.com,2013-10-05 00:09:00,
2013-10-04 16:24:00,37.0,34.1,29.60,South,180,2.7,-999.0,89,-99.99,,,0.00,Acu-Link.com,2013-10-05 00:24:00,
2013-10-04 16:40:00,37.4,34.2,29.59,SE,135,2.2,-999.0,88,-99.99,,,0.00,Acu-Link.com,2013-10-05 00:40:00,
2013-10-04 16:55:00,37.2,34.0,29.60,SSW,202,2.7,-999.0,88,-99.99,,,0.00,Acu-Link.com,2013-10-05 00:55:00,
2013-10-04 17:10:00,37.4,34.5,29.60,South,180,1.1,-999.0,89,-99.99,,,0.00,Acu-Link.com,2013-10-05 01:10:00,
2013-10-04 17:26:00,37.0,34.1,29.60,SSE,157,2.7,-999.0,89,-99.99,,,0.00,Acu-Link.com,2013-10-05 01:26:00,
2013-10-04 17:41:00,37.0,34.1,29.60,South,180,0.0,-999.0,89,-99.99,,,0.00,Acu-Link.com,2013-10-05 01:41:00,
2013-10-04 17:57:00,37.0,34.3,29.61,SE,135,1.7,-999.0,90,-99.99,,,0.00,Acu-Link.com,2013-10-05 01:57:00,
2013-10-04 18:12:00,36.9,34.5,29.61,ESE,112,3.2,-999.0,91,-99.99,,,0.00,Acu-Link.com,2013-10-05 02:12:00,
2013-10-04 18:27:00,36.5,34.1,29.60,SSE,157,2.2,-999.0,91,-99.99,,,0.00,Acu-Link.com,2013-10-05 02:27:00,
2013-10-04 18:43:00,36.3,34.2,29.61,ESE,112,2.7,-999.0,92,-99.99,,,0.00,Acu-Link.com,2013-10-05 02:43:00,
2013-10-04 18:58:00,36.1,34.0,29.61,SSE,157,3.2,-999.0,92,-99.99,,,0.00,Acu-Link.com,2013-10-05 02:58:00,
2013-10-04 19:13:00,36.0,33.9,29.60,SE,135,2.2,-999.0,92,-99.99,,,0.00,Acu-Link.com,2013-10-05 03:13:00,
2013-10-04 19:28:00,35.6,34.0,29.61,ESE,112,3.2,-999.0,94,-99.99,,,0.00,Acu-Link.com,2013-10-05 03:28:00,
2013-10-04 19:43:00,35.4,33.8,29.61,ESE,112,2.7,-999.0,94,-99.99,,,0.00,Acu-Link.com,2013-10-05 03:43:00,
2013-10-04 19:59:00,35.1,33.6,29.62,East,90,3.2,-999.0,94,-99.99,,,0.00,Acu-Link.com,2013-10-05 03:59:00,
2013-10-04 20:14:00,34.9,33.6,29.62,SSE,157,2.2,-999.0,95,-99.99,,,0.00,Acu-Link.com,2013-10-05 04:14:00,
2013-10-04 20:29:00,34.5,33.2,29.63,SE,135,2.2,-999.0,95,-99.99,,,0.00,Acu-Link.com,2013-10-05 04:29:00,
2013-10-04 20:44:00,33.4,32.4,29.63,SSW,202,0.0,-999.0,96,-99.99,,,0.00,Acu-Link.com,2013-10-05 04:44:00,
2013-10-04 21:00:00,33.3,32.8,29.63,ESE,112,2.7,-999.0,98,-99.99,,,0.00,Acu-Link.com,2013-10-05 05:00:00,
2013-10-04 21:16:00,33.3,32.8,29.63,SE,135,1.1,-999.0,98,-99.99,,,0.00,Acu-Link.com,2013-10-05 05:16:00,
2013-10-04 21:31:00,32.9,32.4,29.63,SE,135,2.7,-999.0,98,-99.99,,,0.00,Acu-Link.com,2013-10-05 05:31:00,
2013-10-04 21:46:00,32.5,32.0,29.64,SE,135,3.2,-999.0,98,-99.99,,,0.00,Acu-Link.com,2013-10-05 05:46:00,
2013-10-04 22:02:00,32.2,31.7,29.64,SSE,157,2.7,-999.0,98,-99.99,,,0.00,Acu-Link.com,2013-10-05 06:02:00,
2013-10-04 22:17:00,31.8,31.3,29.64,SSE,157,1.7,-999.0,98,-99.99,,,0.00,Acu-Link.com,2013-10-05 06:17:00,
2013-10-04 22:32:00,31.3,30.8,29.65,SSE,157,2.2,-999.0,98,-99.99,,,0.00,Acu-Link.com,2013-10-05 06:32:00,
2013-10-04 22:47:00,31.1,30.6,29.65,ESE,112,2.7,-999.0,98,-99.99,,,0.00,Acu-Link.com,2013-10-05 06:47:00,
2013-10-04 23:07:00,31.1,30.6,29.65,SE,135,2.7,-999.0,98,-99.99,,,0.00,Acu-Link.com,2013-10-05 07:07:00,
2013-10-04 23:22:00,31.3,30.8,29.64,SE,135,2.2,-999.0,98,-99.99,,,0.00,Acu-Link.com,2013-10-05 07:22:00,
2013-10-04 23:40:00,30.9,30.4,29.65,SE,135,0.0,-999.0,98,-99.99,,,0.00,Acu-Link.com,2013-10-05 07:40:00,
2013-10-04 23:55:00,31.6,31.1,29.65,SSE,157,2.7,-999.0,98,-99.99,,,0.00,Acu-Link.com,2013-10-05 07:55:00,